sensor_id;sensor_type;location;lat;lon;timestamp;P1;durP1;ratioP1;P2;durP2;ratioP2
51010;SDS011;37038;50.182;8.624;2022-11-20T00:00:21;35.80;;;24.15;;
51010;SDS011;37038;50.182;8.624;2022-11-20T00:13:02;36.00;;;23.98;;
51010;SDS011;37038;50.182;8.624;2022-11-20T00:21:16;41.83;;;23.55;;
51010;SDS011;37038;50.182;8.624;2022-11-20T00:25:51;39.63;;;23.83;;
51010;SDS011;37038;50.182;8.624;2022-11-20T00:29:30;36.42;;;24.02;;
51010;SDS011;37038;50.182;8.624;2022-11-20T00:33:11;36.22;;;23.60;;
51010;SDS011;37038;50.182;8.624;2022-11-20T00:37:13;40.17;;;24.92;;
51010;SDS011;37038;50.182;8.624;2022-11-20T00:45:55;36.45;;;23.55;;
51010;SDS011;37038;50.182;8.624;2022-11-20T01:10:57;40.58;;;25.90;;
51010;SDS011;37038;50.182;8.624;2022-11-20T01:15:30;42.28;;;26.83;;
51010;SDS011;37038;50.182;8.624;2022-11-20T01:24:20;39.13;;;24.50;;
51010;SDS011;37038;50.182;8.624;2022-11-20T01:32:16;41.92;;;26.33;;
51010;SDS011;37038;50.182;8.624;2022-11-20T01:36:13;42.78;;;26.75;;
51010;SDS011;37038;50.182;8.624;2022-11-20T01:44:17;43.40;;;26.55;;
51010;SDS011;37038;50.182;8.624;2022-11-20T01:47:39;46.67;;;27.60;;
51010;SDS011;37038;50.182;8.624;2022-11-20T01:51:15;48.78;;;31.52;;
51010;SDS011;37038;50.182;8.624;2022-11-20T02:07:44;45.47;;;28.58;;
51010;SDS011;37038;50.182;8.624;2022-11-20T02:10:42;50.33;;;29.00;;
51010;SDS011;37038;50.182;8.624;2022-11-20T02:14:03;50.40;;;30.20;;
51010;SDS011;37038;50.182;8.624;2022-11-20T02:17:37;51.38;;;30.30;;
51010;SDS011;37038;50.182;8.624;2022-11-20T02:20:37;52.65;;;31.23;;
51010;SDS011;37038;50.182;8.624;2022-11-20T02:24:26;51.00;;;29.85;;
51010;SDS011;37038;50.182;8.624;2022-11-20T02:28:26;50.90;;;30.55;;
51010;SDS011;37038;50.182;8.624;2022-11-20T02:31:48;48.88;;;30.08;;
51010;SDS011;37038;50.182;8.624;2022-11-20T02:35:05;61.42;;;33.25;;
51010;SDS011;37038;50.182;8.624;2022-11-20T02:38:24;56.72;;;32.38;;
51010;SDS011;37038;50.182;8.624;2022-11-20T02:41:43;55.63;;;33.13;;
51010;SDS011;37038;50.182;8.624;2022-11-20T02:44:52;55.25;;;33.15;;
51010;SDS011;37038;50.182;8.624;2022-11-20T02:51:14;55.45;;;31.85;;
51010;SDS011;37038;50.182;8.624;2022-11-20T02:54:10;60.42;;;33.30;;
51010;SDS011;37038;50.182;8.624;2022-11-20T02:57:01;61.05;;;36.08;;
51010;SDS011;37038;50.182;8.624;2022-11-20T03:03:35;58.95;;;33.60;;
51010;SDS011;37038;50.182;8.624;2022-11-20T03:06:38;61.95;;;33.78;;
51010;SDS011;37038;50.182;8.624;2022-11-20T03:09:39;56.20;;;32.33;;
51010;SDS011;37038;50.182;8.624;2022-11-20T03:12:45;64.32;;;36.15;;
51010;SDS011;37038;50.182;8.624;2022-11-20T03:15:39;67.82;;;37.80;;
51010;SDS011;37038;50.182;8.624;2022-11-20T03:19:10;59.50;;;35.10;;
51010;SDS011;37038;50.182;8.624;2022-11-20T03:22:21;67.95;;;36.92;;
51010;SDS011;37038;50.182;8.624;2022-11-20T03:25:09;59.30;;;33.90;;
51010;SDS011;37038;50.182;8.624;2022-11-20T03:27:57;50.97;;;31.58;;
51010;SDS011;37038;50.182;8.624;2022-11-20T03:30:54;58.10;;;33.35;;
51010;SDS011;37038;50.182;8.624;2022-11-20T03:34:11;57.67;;;32.80;;
51010;SDS011;37038;50.182;8.624;2022-11-20T03:37:02;55.22;;;30.98;;
51010;SDS011;37038;50.182;8.624;2022-11-20T03:40:04;55.75;;;33.35;;
51010;SDS011;37038;50.182;8.624;2022-11-20T03:42:58;53.08;;;30.50;;
51010;SDS011;37038;50.182;8.624;2022-11-20T03:45:59;49.22;;;30.42;;
51010;SDS011;37038;50.182;8.624;2022-11-20T03:49:02;50.67;;;29.83;;
51010;SDS011;37038;50.182;8.624;2022-11-20T03:51:58;52.38;;;30.23;;
51010;SDS011;37038;50.182;8.624;2022-11-20T03:55:02;53.67;;;29.65;;
51010;SDS011;37038;50.182;8.624;2022-11-20T03:58:09;51.90;;;29.35;;
51010;SDS011;37038;50.182;8.624;2022-11-20T04:01:08;42.90;;;26.90;;
51010;SDS011;37038;50.182;8.624;2022-11-20T04:04:04;46.75;;;28.08;;
51010;SDS011;37038;50.182;8.624;2022-11-20T04:06:59;47.67;;;29.15;;
51010;SDS011;37038;50.182;8.624;2022-11-20T04:09:53;44.15;;;27.38;;
51010;SDS011;37038;50.182;8.624;2022-11-20T04:12:51;47.47;;;27.90;;
51010;SDS011;37038;50.182;8.624;2022-11-20T04:15:56;52.20;;;29.42;;
51010;SDS011;37038;50.182;8.624;2022-11-20T04:19:01;50.42;;;29.25;;
51010;SDS011;37038;50.182;8.624;2022-11-20T04:22:14;48.25;;;29.50;;
51010;SDS011;37038;50.182;8.624;2022-11-20T04:25:14;50.33;;;28.40;;
51010;SDS011;37038;50.182;8.624;2022-11-20T04:28:08;49.10;;;28.42;;
51010;SDS011;37038;50.182;8.624;2022-11-20T04:34:14;50.85;;;29.27;;
51010;SDS011;37038;50.182;8.624;2022-11-20T04:37:26;51.15;;;29.40;;
51010;SDS011;37038;50.182;8.624;2022-11-20T04:40:28;48.45;;;29.85;;
51010;SDS011;37038;50.182;8.624;2022-11-20T04:43:26;42.88;;;28.05;;
51010;SDS011;37038;50.182;8.624;2022-11-20T04:46:25;44.47;;;27.52;;
51010;SDS011;37038;50.182;8.624;2022-11-20T04:49:15;47.80;;;29.67;;
51010;SDS011;37038;50.182;8.624;2022-11-20T04:52:13;52.95;;;29.52;;
51010;SDS011;37038;50.182;8.624;2022-11-20T04:55:12;49.30;;;30.48;;
51010;SDS011;37038;50.182;8.624;2022-11-20T04:58:03;53.25;;;29.92;;
51010;SDS011;37038;50.182;8.624;2022-11-20T05:00:51;47.25;;;28.88;;
51010;SDS011;37038;50.182;8.624;2022-11-20T05:07:22;45.20;;;28.27;;
51010;SDS011;37038;50.182;8.624;2022-11-20T05:10:42;40.33;;;25.20;;
51010;SDS011;37038;50.182;8.624;2022-11-20T05:13:54;41.50;;;26.83;;
51010;SDS011;37038;50.182;8.624;2022-11-20T05:17:09;44.90;;;26.45;;
51010;SDS011;37038;50.182;8.624;2022-11-20T05:20:07;47.65;;;28.52;;
51010;SDS011;37038;50.182;8.624;2022-11-20T05:22:57;47.25;;;29.13;;
51010;SDS011;37038;50.182;8.624;2022-11-20T05:25:51;48.03;;;29.15;;
51010;SDS011;37038;50.182;8.624;2022-11-20T05:28:48;45.42;;;27.77;;
51010;SDS011;37038;50.182;8.624;2022-11-20T05:31:41;42.80;;;25.95;;
51010;SDS011;37038;50.182;8.624;2022-11-20T05:35:20;40.17;;;26.08;;
51010;SDS011;37038;50.182;8.624;2022-11-20T05:38:35;44.88;;;27.15;;
51010;SDS011;37038;50.182;8.624;2022-11-20T05:41:32;45.75;;;27.48;;
51010;SDS011;37038;50.182;8.624;2022-11-20T05:45:11;48.05;;;26.25;;
51010;SDS011;37038;50.182;8.624;2022-11-20T05:48:13;45.65;;;27.88;;
51010;SDS011;37038;50.182;8.624;2022-11-20T05:51:14;44.85;;;27.83;;
51010;SDS011;37038;50.182;8.624;2022-11-20T05:54:27;55.47;;;29.45;;
51010;SDS011;37038;50.182;8.624;2022-11-20T05:57:30;50.28;;;28.40;;
51010;SDS011;37038;50.182;8.624;2022-11-20T06:00:50;50.35;;;29.42;;
51010;SDS011;37038;50.182;8.624;2022-11-20T06:03:58;48.92;;;29.52;;
51010;SDS011;37038;50.182;8.624;2022-11-20T06:10:47;50.33;;;30.13;;
51010;SDS011;37038;50.182;8.624;2022-11-20T06:13:52;53.03;;;30.05;;
51010;SDS011;37038;50.182;8.624;2022-11-20T06:16:52;52.60;;;31.38;;
51010;SDS011;37038;50.182;8.624;2022-11-20T06:19:48;51.58;;;31.45;;
51010;SDS011;37038;50.182;8.624;2022-11-20T06:22:36;53.47;;;32.13;;
51010;SDS011;37038;50.182;8.624;2022-11-20T06:26:32;52.28;;;31.00;;
51010;SDS011;37038;50.182;8.624;2022-11-20T06:36:44;55.33;;;32.25;;
51010;SDS011;37038;50.182;8.624;2022-11-20T06:40:38;61.05;;;32.72;;
51010;SDS011;37038;50.182;8.624;2022-11-20T06:59:09;66.63;;;38.08;;
51010;SDS011;37038;50.182;8.624;2022-11-20T07:07:20;72.95;;;38.72;;
51010;SDS011;37038;50.182;8.624;2022-11-20T07:10:40;65.07;;;35.28;;
51010;SDS011;37038;50.182;8.624;2022-11-20T07:14:04;71.40;;;37.40;;
51010;SDS011;37038;50.182;8.624;2022-11-20T07:39:52;66.22;;;36.55;;
51010;SDS011;37038;50.182;8.624;2022-11-20T07:43:55;76.55;;;37.08;;
51010;SDS011;37038;50.182;8.624;2022-11-20T08:05:28;78.20;;;38.47;;
51010;SDS011;37038;50.182;8.624;2022-11-20T08:13:42;91.30;;;40.80;;
51010;SDS011;37038;50.182;8.624;2022-11-20T08:16:56;94.30;;;44.58;;
51010;SDS011;37038;50.182;8.624;2022-11-20T08:20:07;80.65;;;41.05;;
51010;SDS011;37038;50.182;8.624;2022-11-20T08:23:07;98.22;;;43.25;;
51010;SDS011;37038;50.182;8.624;2022-11-20T08:25:55;89.97;;;42.20;;
51010;SDS011;37038;50.182;8.624;2022-11-20T08:28:45;89.05;;;41.50;;
51010;SDS011;37038;50.182;8.624;2022-11-20T08:31:33;82.20;;;40.58;;
51010;SDS011;37038;50.182;8.624;2022-11-20T08:34:21;85.97;;;39.78;;
51010;SDS011;37038;50.182;8.624;2022-11-20T08:37:10;81.82;;;41.83;;
51010;SDS011;37038;50.182;8.624;2022-11-20T08:39:58;84.90;;;41.08;;
51010;SDS011;37038;50.182;8.624;2022-11-20T08:42:47;85.75;;;41.00;;
51010;SDS011;37038;50.182;8.624;2022-11-20T08:45:36;89.28;;;43.05;;
51010;SDS011;37038;50.182;8.624;2022-11-20T08:48:24;93.18;;;40.75;;
51010;SDS011;37038;50.182;8.624;2022-11-20T08:51:14;81.03;;;38.92;;
51010;SDS011;37038;50.182;8.624;2022-11-20T08:54:06;85.97;;;40.75;;
51010;SDS011;37038;50.182;8.624;2022-11-20T08:56:55;96.03;;;41.08;;
51010;SDS011;37038;50.182;8.624;2022-11-20T08:59:43;85.05;;;40.35;;
51010;SDS011;37038;50.182;8.624;2022-11-20T09:02:51;84.40;;;37.20;;
51010;SDS011;37038;50.182;8.624;2022-11-20T09:05:39;76.60;;;38.03;;
51010;SDS011;37038;50.182;8.624;2022-11-20T09:08:27;76.25;;;36.05;;
51010;SDS011;37038;50.182;8.624;2022-11-20T09:11:18;75.35;;;38.35;;
51010;SDS011;37038;50.182;8.624;2022-11-20T09:14:14;87.32;;;39.30;;
51010;SDS011;37038;50.182;8.624;2022-11-20T09:17:02;89.18;;;40.55;;
51010;SDS011;37038;50.182;8.624;2022-11-20T09:19:50;91.38;;;40.97;;
51010;SDS011;37038;50.182;8.624;2022-11-20T09:22:39;93.55;;;40.97;;
51010;SDS011;37038;50.182;8.624;2022-11-20T09:25:28;92.43;;;41.25;;
51010;SDS011;37038;50.182;8.624;2022-11-20T09:28:18;94.82;;;39.28;;
51010;SDS011;37038;50.182;8.624;2022-11-20T09:31:19;82.47;;;41.35;;
51010;SDS011;37038;50.182;8.624;2022-11-20T09:34:13;90.88;;;40.60;;
51010;SDS011;37038;50.182;8.624;2022-11-20T09:37:01;80.80;;;39.05;;
51010;SDS011;37038;50.182;8.624;2022-11-20T09:39:56;74.70;;;38.05;;
51010;SDS011;37038;50.182;8.624;2022-11-20T09:43:23;73.10;;;36.60;;
51010;SDS011;37038;50.182;8.624;2022-11-20T09:52:31;63.47;;;34.33;;
51010;SDS011;37038;50.182;8.624;2022-11-20T09:56:23;65.32;;;34.00;;
51010;SDS011;37038;50.182;8.624;2022-11-20T09:59:29;64.25;;;35.60;;
51010;SDS011;37038;50.182;8.624;2022-11-20T10:06:34;64.55;;;33.97;;
51010;SDS011;37038;50.182;8.624;2022-11-20T10:10:03;59.92;;;32.95;;
51010;SDS011;37038;50.182;8.624;2022-11-20T10:13:35;60.42;;;33.17;;
51010;SDS011;37038;50.182;8.624;2022-11-20T10:31:14;61.20;;;31.80;;
51010;SDS011;37038;50.182;8.624;2022-11-20T10:34:26;56.60;;;30.30;;
51010;SDS011;37038;50.182;8.624;2022-11-20T10:37:50;63.22;;;31.85;;
51010;SDS011;37038;50.182;8.624;2022-11-20T10:40:57;62.20;;;32.53;;
51010;SDS011;37038;50.182;8.624;2022-11-20T10:44:37;66.10;;;32.42;;
51010;SDS011;37038;50.182;8.624;2022-11-20T10:47:53;63.35;;;32.92;;
51010;SDS011;37038;50.182;8.624;2022-11-20T10:57:52;66.63;;;31.42;;
51010;SDS011;37038;50.182;8.624;2022-11-20T11:01:04;63.35;;;31.23;;
51010;SDS011;37038;50.182;8.624;2022-11-20T11:04:02;60.70;;;31.73;;
51010;SDS011;37038;50.182;8.624;2022-11-20T11:07:27;62.17;;;31.50;;
51010;SDS011;37038;50.182;8.624;2022-11-20T11:13:45;62.15;;;31.60;;
51010;SDS011;37038;50.182;8.624;2022-11-20T11:16:54;58.97;;;32.25;;
51010;SDS011;37038;50.182;8.624;2022-11-20T11:19:44;60.80;;;32.78;;
51010;SDS011;37038;50.182;8.624;2022-11-20T11:22:55;69.05;;;35.28;;
51010;SDS011;37038;50.182;8.624;2022-11-20T11:25:55;60.60;;;32.95;;
51010;SDS011;37038;50.182;8.624;2022-11-20T11:28:55;73.35;;;35.22;;
51010;SDS011;37038;50.182;8.624;2022-11-20T11:31:45;62.53;;;32.67;;
51010;SDS011;37038;50.182;8.624;2022-11-20T11:34:36;67.05;;;34.58;;
51010;SDS011;37038;50.182;8.624;2022-11-20T11:37:24;70.80;;;36.70;;
51010;SDS011;37038;50.182;8.624;2022-11-20T11:40:23;69.97;;;37.83;;
51010;SDS011;37038;50.182;8.624;2022-11-20T11:43:56;87.20;;;42.40;;
51010;SDS011;37038;50.182;8.624;2022-11-20T11:47:11;79.68;;;40.17;;
51010;SDS011;37038;50.182;8.624;2022-11-20T11:50:29;76.75;;;40.13;;
51010;SDS011;37038;50.182;8.624;2022-11-20T11:53:23;77.05;;;40.38;;
51010;SDS011;37038;50.182;8.624;2022-11-20T11:56:13;70.18;;;39.30;;
51010;SDS011;37038;50.182;8.624;2022-11-20T11:59:06;82.97;;;41.10;;
51010;SDS011;37038;50.182;8.624;2022-11-20T12:02:05;81.93;;;41.53;;
51010;SDS011;37038;50.182;8.624;2022-11-20T12:05:32;64.00;;;36.10;;
51010;SDS011;37038;50.182;8.624;2022-11-20T12:14:42;65.13;;;36.72;;
51010;SDS011;37038;50.182;8.624;2022-11-20T12:17:34;64.03;;;36.22;;
51010;SDS011;37038;50.182;8.624;2022-11-20T12:20:32;65.78;;;37.08;;
51010;SDS011;37038;50.182;8.624;2022-11-20T12:23:38;63.03;;;35.92;;
51010;SDS011;37038;50.182;8.624;2022-11-20T12:39:34;76.40;;;38.03;;
51010;SDS011;37038;50.182;8.624;2022-11-20T12:42:50;71.15;;;38.15;;
51010;SDS011;37038;50.182;8.624;2022-11-20T12:46:28;78.18;;;40.35;;
51010;SDS011;37038;50.182;8.624;2022-11-20T12:49:54;75.68;;;38.92;;
51010;SDS011;37038;50.182;8.624;2022-11-20T12:53:03;73.63;;;39.70;;
51010;SDS011;37038;50.182;8.624;2022-11-20T13:08:39;67.93;;;36.92;;
51010;SDS011;37038;50.182;8.624;2022-11-20T13:18:19;79.10;;;39.75;;
51010;SDS011;37038;50.182;8.624;2022-11-20T13:21:18;73.47;;;38.67;;
51010;SDS011;37038;50.182;8.624;2022-11-20T13:24:29;77.93;;;40.80;;
51010;SDS011;37038;50.182;8.624;2022-11-20T13:27:29;70.22;;;38.15;;
51010;SDS011;37038;50.182;8.624;2022-11-20T13:30:19;74.40;;;39.67;;
51010;SDS011;37038;50.182;8.624;2022-11-20T13:36:28;68.90;;;39.22;;
51010;SDS011;37038;50.182;8.624;2022-11-20T13:39:38;70.55;;;38.78;;
51010;SDS011;37038;50.182;8.624;2022-11-20T13:42:27;70.63;;;37.78;;
51010;SDS011;37038;50.182;8.624;2022-11-20T13:45:22;76.15;;;39.72;;
51010;SDS011;37038;50.182;8.624;2022-11-20T13:49:05;81.65;;;42.00;;
51010;SDS011;37038;50.182;8.624;2022-11-20T13:51:31;78.70;;;41.20;;
51010;SDS011;37038;50.182;8.624;2022-11-20T13:54:52;81.47;;;40.72;;
51010;SDS011;37038;50.182;8.624;2022-11-20T14:00:44;83.88;;;43.40;;
51010;SDS011;37038;50.182;8.624;2022-11-20T14:04:20;88.03;;;43.50;;
51010;SDS011;37038;50.182;8.624;2022-11-20T14:07:20;86.93;;;42.90;;
51010;SDS011;37038;50.182;8.624;2022-11-20T14:10:33;75.32;;;41.75;;
51010;SDS011;37038;50.182;8.624;2022-11-20T14:13:21;86.60;;;42.95;;
51010;SDS011;37038;50.182;8.624;2022-11-20T14:16:18;86.35;;;43.40;;
51010;SDS011;37038;50.182;8.624;2022-11-20T14:22:24;83.45;;;41.85;;
51010;SDS011;37038;50.182;8.624;2022-11-20T14:28:02;85.97;;;43.00;;
51010;SDS011;37038;50.182;8.624;2022-11-20T14:30:52;86.68;;;43.97;;
51010;SDS011;37038;50.182;8.624;2022-11-20T14:33:43;82.78;;;43.25;;
51010;SDS011;37038;50.182;8.624;2022-11-20T14:36:31;93.53;;;44.20;;
51010;SDS011;37038;50.182;8.624;2022-11-20T14:39:20;82.93;;;43.03;;
51010;SDS011;37038;50.182;8.624;2022-11-20T14:42:14;83.38;;;43.05;;
51010;SDS011;37038;50.182;8.624;2022-11-20T14:45:11;79.32;;;41.75;;
51010;SDS011;37038;50.182;8.624;2022-11-20T14:47:59;81.88;;;42.95;;
51010;SDS011;37038;50.182;8.624;2022-11-20T14:50:47;78.00;;;41.90;;
51010;SDS011;37038;50.182;8.624;2022-11-20T14:53:35;68.88;;;39.83;;
51010;SDS011;37038;50.182;8.624;2022-11-20T14:56:29;70.82;;;39.58;;
51010;SDS011;37038;50.182;8.624;2022-11-20T14:59:21;70.00;;;38.92;;
51010;SDS011;37038;50.182;8.624;2022-11-20T15:02:16;69.18;;;38.97;;
51010;SDS011;37038;50.182;8.624;2022-11-20T15:05:06;78.63;;;41.58;;
51010;SDS011;37038;50.182;8.624;2022-11-20T15:08:06;67.75;;;38.85;;
51010;SDS011;37038;50.182;8.624;2022-11-20T15:10:57;71.88;;;40.67;;
51010;SDS011;37038;50.182;8.624;2022-11-20T15:13:45;77.78;;;41.42;;
51010;SDS011;37038;50.182;8.624;2022-11-20T15:16:33;76.30;;;42.70;;
51010;SDS011;37038;50.182;8.624;2022-11-20T15:19:22;73.15;;;40.95;;
51010;SDS011;37038;50.182;8.624;2022-11-20T15:22:12;76.90;;;42.10;;
51010;SDS011;37038;50.182;8.624;2022-11-20T15:25:01;72.93;;;42.30;;
51010;SDS011;37038;50.182;8.624;2022-11-20T15:27:54;77.38;;;43.38;;
51010;SDS011;37038;50.182;8.624;2022-11-20T15:30:45;68.87;;;40.83;;
51010;SDS011;37038;50.182;8.624;2022-11-20T15:33:35;75.68;;;43.50;;
51010;SDS011;37038;50.182;8.624;2022-11-20T15:36:23;70.32;;;40.60;;
51010;SDS011;37038;50.182;8.624;2022-11-20T15:39:14;68.05;;;41.53;;
51010;SDS011;37038;50.182;8.624;2022-11-20T15:42:02;68.05;;;41.05;;
51010;SDS011;37038;50.182;8.624;2022-11-20T15:44:50;66.38;;;40.78;;
51010;SDS011;37038;50.182;8.624;2022-11-20T15:47:38;67.32;;;37.88;;
51010;SDS011;37038;50.182;8.624;2022-11-20T15:50:36;78.65;;;46.65;;
51010;SDS011;37038;50.182;8.624;2022-11-20T15:53:28;73.22;;;42.03;;
51010;SDS011;37038;50.182;8.624;2022-11-20T15:56:20;64.90;;;39.63;;
51010;SDS011;37038;50.182;8.624;2022-11-20T15:59:15;65.07;;;38.40;;
51010;SDS011;37038;50.182;8.624;2022-11-20T16:02:19;63.08;;;36.30;;
51010;SDS011;37038;50.182;8.624;2022-11-20T16:05:11;65.75;;;37.70;;
51010;SDS011;37038;50.182;8.624;2022-11-20T16:08:10;66.60;;;40.22;;
51010;SDS011;37038;50.182;8.624;2022-11-20T16:10:58;65.82;;;38.25;;
51010;SDS011;37038;50.182;8.624;2022-11-20T16:13:47;60.58;;;36.25;;
51010;SDS011;37038;50.182;8.624;2022-11-20T16:16:56;63.17;;;36.00;;
51010;SDS011;37038;50.182;8.624;2022-11-20T16:19:51;63.17;;;37.97;;
51010;SDS011;37038;50.182;8.624;2022-11-20T16:22:48;61.67;;;36.92;;
51010;SDS011;37038;50.182;8.624;2022-11-20T16:25:44;63.63;;;37.65;;
51010;SDS011;37038;50.182;8.624;2022-11-20T16:28:37;65.88;;;37.90;;
51010;SDS011;37038;50.182;8.624;2022-11-20T16:31:27;63.75;;;36.92;;
51010;SDS011;37038;50.182;8.624;2022-11-20T16:34:16;68.43;;;38.15;;
51010;SDS011;37038;50.182;8.624;2022-11-20T16:37:08;60.08;;;34.75;;
51010;SDS011;37038;50.182;8.624;2022-11-20T16:39:58;64.15;;;37.55;;
51010;SDS011;37038;50.182;8.624;2022-11-20T16:42:50;61.03;;;35.60;;
51010;SDS011;37038;50.182;8.624;2022-11-20T16:46:08;60.97;;;35.22;;
51010;SDS011;37038;50.182;8.624;2022-11-20T16:49:12;68.43;;;39.13;;
51010;SDS011;37038;50.182;8.624;2022-11-20T16:52:34;66.95;;;36.17;;
51010;SDS011;37038;50.182;8.624;2022-11-20T16:55:32;73.43;;;38.80;;
51010;SDS011;37038;50.182;8.624;2022-11-20T17:01:47;71.57;;;38.38;;
51010;SDS011;37038;50.182;8.624;2022-11-20T17:04:58;88.90;;;40.50;;
51010;SDS011;37038;50.182;8.624;2022-11-20T17:55:21;88.55;;;44.40;;
51010;SDS011;37038;50.182;8.624;2022-11-20T18:12:42;109.25;;;48.90;;
51010;SDS011;37038;50.182;8.624;2022-11-20T18:16:42;114.40;;;49.13;;
51010;SDS011;37038;50.182;8.624;2022-11-20T18:19:43;108.32;;;47.88;;
51010;SDS011;37038;50.182;8.624;2022-11-20T18:23:06;94.45;;;42.78;;
51010;SDS011;37038;50.182;8.624;2022-11-20T18:26:03;81.50;;;41.85;;
51010;SDS011;37038;50.182;8.624;2022-11-20T18:29:06;94.15;;;41.65;;
51010;SDS011;37038;50.182;8.624;2022-11-20T18:31:58;127.20;;;50.85;;
51010;SDS011;37038;50.182;8.624;2022-11-20T18:34:49;116.43;;;48.55;;
51010;SDS011;37038;50.182;8.624;2022-11-20T18:37:41;79.43;;;42.22;;
51010;SDS011;37038;50.182;8.624;2022-11-20T18:40:33;67.50;;;38.38;;
51010;SDS011;37038;50.182;8.624;2022-11-20T18:43:28;71.40;;;38.65;;
51010;SDS011;37038;50.182;8.624;2022-11-20T18:46:49;60.95;;;34.03;;
51010;SDS011;37038;50.182;8.624;2022-11-20T18:53:25;84.68;;;38.17;;
51010;SDS011;37038;50.182;8.624;2022-11-20T18:56:43;82.18;;;38.88;;
51010;SDS011;37038;50.182;8.624;2022-11-20T18:59:39;102.90;;;41.67;;
51010;SDS011;37038;50.182;8.624;2022-11-20T19:02:54;72.80;;;38.35;;
51010;SDS011;37038;50.182;8.624;2022-11-20T19:06:49;100.85;;;45.30;;
51010;SDS011;37038;50.182;8.624;2022-11-20T19:10:05;75.32;;;38.63;;
51010;SDS011;37038;50.182;8.624;2022-11-20T19:13:17;69.38;;;36.50;;
51010;SDS011;37038;50.182;8.624;2022-11-20T19:21:11;76.35;;;33.67;;
51010;SDS011;37038;50.182;8.624;2022-11-20T19:24:21;70.38;;;33.92;;
51010;SDS011;37038;50.182;8.624;2022-11-20T19:27:28;80.45;;;37.55;;
51010;SDS011;37038;50.182;8.624;2022-11-20T19:30:45;59.17;;;31.95;;
51010;SDS011;37038;50.182;8.624;2022-11-20T19:33:39;59.85;;;32.08;;
51010;SDS011;37038;50.182;8.624;2022-11-20T19:36:53;63.00;;;32.45;;
51010;SDS011;37038;50.182;8.624;2022-11-20T19:39:52;69.55;;;33.78;;
51010;SDS011;37038;50.182;8.624;2022-11-20T19:43:02;53.70;;;28.98;;
51010;SDS011;37038;50.182;8.624;2022-11-20T19:46:20;44.13;;;23.23;;
51010;SDS011;37038;50.182;8.624;2022-11-20T19:49:15;33.45;;;19.17;;
51010;SDS011;37038;50.182;8.624;2022-11-20T19:52:20;26.55;;;15.57;;
51010;SDS011;37038;50.182;8.624;2022-11-20T20:13:49;8.50;;;6.13;;
51010;SDS011;37038;50.182;8.624;2022-11-20T20:21:58;7.93;;;4.97;;
51010;SDS011;37038;50.182;8.624;2022-11-20T20:37:46;4.90;;;3.45;;
51010;SDS011;37038;50.182;8.624;2022-11-20T20:41:39;6.25;;;3.60;;
51010;SDS011;37038;50.182;8.624;2022-11-20T20:48:06;4.57;;;2.92;;
51010;SDS011;37038;50.182;8.624;2022-11-20T20:55:34;4.55;;;3.00;;
51010;SDS011;37038;50.182;8.624;2022-11-20T20:59:29;5.97;;;3.55;;
51010;SDS011;37038;50.182;8.624;2022-11-20T21:15:18;3.60;;;3.30;;
51010;SDS011;37038;50.182;8.624;2022-11-20T21:29:35;5.18;;;3.40;;
51010;SDS011;37038;50.182;8.624;2022-11-20T21:57:06;7.35;;;3.47;;
51010;SDS011;37038;50.182;8.624;2022-11-20T22:01:09;3.63;;;3.25;;
51010;SDS011;37038;50.182;8.624;2022-11-20T22:05:12;4.85;;;3.42;;
51010;SDS011;37038;50.182;8.624;2022-11-20T22:14:37;4.45;;;3.45;;
51010;SDS011;37038;50.182;8.624;2022-11-20T22:17:49;3.80;;;2.90;;
51010;SDS011;37038;50.182;8.624;2022-11-20T22:34:10;4.05;;;3.50;;
51010;SDS011;37038;50.182;8.624;2022-11-20T22:37:13;4.53;;;3.88;;
51010;SDS011;37038;50.182;8.624;2022-11-20T22:41:14;6.05;;;3.67;;
51010;SDS011;37038;50.182;8.624;2022-11-20T22:44:36;6.88;;;3.88;;
51010;SDS011;37038;50.182;8.624;2022-11-20T22:48:02;7.47;;;3.65;;
51010;SDS011;37038;50.182;8.624;2022-11-20T22:51:55;7.97;;;4.20;;
51010;SDS011;37038;50.182;8.624;2022-11-20T22:59:02;9.85;;;4.65;;
51010;SDS011;37038;50.182;8.624;2022-11-20T23:09:24;9.20;;;4.00;;
51010;SDS011;37038;50.182;8.624;2022-11-20T23:12:23;7.20;;;3.80;;
51010;SDS011;37038;50.182;8.624;2022-11-20T23:15:20;9.57;;;4.60;;
51010;SDS011;37038;50.182;8.624;2022-11-20T23:19:25;10.27;;;4.43;;
51010;SDS011;37038;50.182;8.624;2022-11-20T23:22:40;11.02;;;3.92;;
51010;SDS011;37038;50.182;8.624;2022-11-20T23:26:05;6.60;;;3.72;;
51010;SDS011;37038;50.182;8.624;2022-11-20T23:29:48;10.80;;;4.32;;
51010;SDS011;37038;50.182;8.624;2022-11-20T23:40:01;18.13;;;5.85;;
51010;SDS011;37038;50.182;8.624;2022-11-20T23:43:50;7.70;;;3.47;;
51010;SDS011;37038;50.182;8.624;2022-11-20T23:50:36;6.30;;;3.42;;
51010;SDS011;37038;50.182;8.624;2022-11-20T23:53:48;7.45;;;3.20;;
51010;SDS011;37038;50.182;8.624;2022-11-20T23:56:58;12.23;;;3.22;;
